Terminal Aerodrome Forecast
Issued by NWS Melbourne, FL

Home | Current Version | Previous Version | Text Only | Print | Product List | Glossary On
Versions: 1 2 3 4 5 6 7 8 9 10 11 12 13 14 15 16 17 18 19
000
FTUS42 KMLB 032340
TAFMLB
TAF
KMLB 032340Z 0400/0424 12008KT P6SM FEW020
     FM040300 14006KT P6SM SKC
     FM040900 14003KT 5SM BR SCT010
      TEMPO 0409/0412 BKN010
     FM041400 15011KT P6SM SCT020 SCT035=

USA.gov is the U.S. government's official web portal to all federal, state and local government web resources and services.